Time;durP1;ratioP1;P1;durP2;ratioP2;P2;SDS_P1;SDS_P2;PMS_P1;PMS_P2;Temp;Humidity;BMP_temperature;BMP_pressure;BME280_temperature;BME280_humidity;BME280_pressure;Samples;Min_cycle;Max_cycle;Signal;HPM_P1;HPM_P2
2022/01/01 00:01:44;;;;;;;7.22;4.18;;;;;;;10.70;89.08;99208.19;4088712;28;20047;-72
2022/01/01 00:03:44;;;;;;;7.43;4.15;;;;;;;10.68;89.72;99208.56;4089247;28;20150;-72
2022/01/01 00:05:45;;;;;;;5.95;4.38;;;;;;;10.75;88.86;99209.88;4087990;28;20434;-72
2022/01/01 00:07:45;;;;;;;5.43;4.13;;;;;;;10.73;88.94;99209.44;4090573;28;20048;-72
2022/01/01 00:09:46;;;;;;;6.07;4.10;;;;;;;10.73;89.20;99204.69;4091859;28;20471;-72
2022/01/01 00:11:46;;;;;;;7.65;3.72;;;;;;;10.67;89.75;99211.66;4088845;28;20741;-72
2022/01/01 00:13:46;;;;;;;6.32;3.92;;;;;;;10.63;89.59;99217.13;4087704;28;20083;-72
2022/01/01 00:15:47;;;;;;;5.63;4.20;;;;;;;10.64;89.50;99221.50;4088673;28;20054;-72
2022/01/01 00:17:47;;;;;;;6.45;4.07;;;;;;;10.69;89.42;99224.00;4088339;28;20289;-72
2022/01/01 00:19:47;;;;;;;5.18;3.80;;;;;;;10.74;88.78;99224.88;4091244;28;20074;-72
2022/01/01 00:21:48;;;;;;;5.20;3.72;;;;;;;10.76;88.90;99222.53;4092359;28;20043;-72
2022/01/01 00:23:49;;;;;;;6.25;3.58;;;;;;;10.68;88.79;99224.38;4103299;28;20487;-72
2022/01/01 00:25:49;;;;;;;5.20;3.65;;;;;;;10.68;88.88;99218.84;4088545;28;20126;-72
2022/01/01 00:27:49;;;;;;;5.45;3.80;;;;;;;10.69;89.22;99226.78;4095553;28;20745;-71
2022/01/01 00:29:50;;;;;;;6.82;3.90;;;;;;;10.67;89.17;99222.75;4172593;28;20536;-72
2022/01/01 00:31:50;;;;;;;4.60;3.50;;;;;;;10.71;89.18;99220.88;4088701;28;20101;-72
2022/01/01 00:33:50;;;;;;;6.22;3.78;;;;;;;10.66;89.69;99229.44;4087758;28;20058;-72
2022/01/01 00:35:51;;;;;;;4.45;3.28;;;;;;;10.67;89.70;99225.50;4088619;28;20052;-72
2022/01/01 00:37:51;;;;;;;4.57;3.35;;;;;;;10.63;89.69;99230.97;4087453;28;20369;-72
2022/01/01 00:39:52;;;;;;;6.75;4.25;;;;;;;10.63;90.18;99232.94;4086440;28;20043;-72
2022/01/01 00:41:52;;;;;;;6.15;4.32;;;;;;;10.59;89.93;99232.88;4088913;28;20590;-72
2022/01/01 00:43:52;;;;;;;4.35;3.35;;;;;;;10.65;89.64;99238.91;4087526;28;20054;-72
2022/01/01 00:45:53;;;;;;;5.50;4.07;;;;;;;10.65;89.28;99242.47;4088025;28;20515;-72
2022/01/01 00:47:53;;;;;;;6.82;3.38;;;;;;;10.66;89.41;99244.09;4095685;28;20382;-72
2022/01/01 00:49:53;;;;;;;4.30;3.60;;;;;;;10.69;89.08;99239.81;4089382;28;20052;-72
2022/01/01 00:51:54;;;;;;;6.00;3.85;;;;;;;10.66;89.24;99251.59;4087757;28;20051;-71
2022/01/01 00:53:55;;;;;;;3.72;3.13;;;;;;;10.67;89.19;99247.66;4088229;28;20292;-72
2022/01/01 00:55:55;;;;;;;7.25;3.47;;;;;;;10.68;89.10;99252.03;4088079;28;20471;-72
2022/01/01 00:57:56;;;;;;;6.47;4.03;;;;;;;10.67;89.13;99253.19;4086732;28;20272;-72
2022/01/01 00:59:56;;;;;;;4.57;3.28;;;;;;;10.70;89.01;99255.25;4088594;28;20305;-72
2022/01/01 01:01:59;;;;;;;6.15;3.40;;;;;;;10.67;89.20;99259.56;4087875;28;20061;-72
2022/01/01 01:04:00;;;;;;;3.80;2.80;;;;;;;10.67;89.11;99267.84;4090322;28;20487;-72
2022/01/01 01:06:00;;;;;;;5.20;3.25;;;;;;;10.70;89.30;99271.84;4168104;28;20078;-72
2022/01/01 01:08:01;;;;;;;6.38;3.65;;;;;;;10.68;89.24;99265.88;4092818;28;20166;-71
2022/01/01 01:10:04;;;;;;;4.95;3.45;;;;;;;10.69;89.06;99265.53;4095495;28;20388;-72
2022/01/01 01:12:05;;;;;;;5.97;3.35;;;;;;;10.67;89.28;99264.25;4091400;28;20113;-72
2022/01/01 01:14:08;;;;;;;3.85;3.10;;;;;;;10.64;89.27;99264.97;4090123;28;20049;-72
2022/01/01 01:16:08;;;;;;;4.38;3.30;;;;;;;10.71;89.25;99253.28;4087786;28;20363;-72
2022/01/01 01:18:09;;;;;;;5.03;3.20;;;;;;;10.70;89.57;99269.09;4087657;28;20035;-72
2022/01/01 01:20:10;;;;;;;5.47;3.35;;;;;;;10.68;89.33;99257.59;4088457;28;20350;-71
2022/01/01 01:22:11;;;;;;;4.85;3.03;;;;;;;10.74;88.94;99258.09;4097976;28;20043;-72
2022/01/01 01:24:13;;;;;;;4.32;3.10;;;;;;;10.74;89.05;99258.88;4097315;28;20045;-71
2022/01/01 01:26:14;;;;;;;4.25;3.05;;;;;;;10.82;88.16;99257.09;4093504;28;20050;-72
2022/01/01 01:28:14;;;;;;;3.45;2.85;;;;;;;10.78;88.39;99245.16;4089150;28;20044;-72
2022/01/01 01:30:16;;;;;;;3.58;2.50;;;;;;;10.73;88.97;99253.72;4091260;28;20477;-71
2022/01/01 01:32:17;;;;;;;3.55;2.53;;;;;;;10.71;89.00;99239.44;4090634;28;20199;-72
2022/01/01 01:34:17;;;;;;;2.92;2.45;;;;;;;10.72;88.73;99241.84;4089301;28;20077;-72
2022/01/01 01:36:17;;;;;;;3.53;2.83;;;;;;;10.73;88.51;99235.16;4090895;28;20435;-72
2022/01/01 01:38:18;;;;;;;4.03;2.60;;;;;;;10.66;88.63;99219.19;4090544;28;20507;-72
2022/01/01 01:40:18;;;;;;;3.85;2.50;;;;;;;10.70;88.70;99224.81;4089354;28;20061;-72
2022/01/01 01:42:19;;;;;;;4.43;2.60;;;;;;;10.68;88.46;99225.16;4090455;28;20035;-72
2022/01/01 01:44:35;;;;;;;4.28;2.60;;;;;;;10.64;89.03;99220.72;4090352;28;20070;-72
2022/01/01 01:46:35;;;;;;;3.10;2.30;;;;;;;10.63;88.57;99219.09;4089454;28;20742;-72
2022/01/01 01:48:38;;;;;;;2.85;2.17;;;;;;;10.60;89.21;99223.41;4090160;28;20045;-72
2022/01/01 01:50:38;;;;;;;4.57;2.20;;;;;;;10.66;88.32;99229.44;4090741;28;20055;-72
2022/01/01 01:52:43;;;;;;;3.75;2.30;;;;;;;10.74;87.79;99224.88;4093262;28;20093;-72
2022/01/01 01:54:44;;;;;;;3.28;2.10;;;;;;;10.74;87.70;99233.19;4092581;28;20308;-72
2022/01/01 01:56:47;;;;;;;3.30;1.92;;;;;;;10.73;87.53;99228.81;4089136;28;20051;-72
2022/01/01 01:58:48;;;;;;;4.68;2.10;;;;;;;10.73;87.31;99242.66;4092063;28;20514;-72
2022/01/01 02:01:20;;;;;;;3.20;2.25;;;;;;;10.75;86.89;99243.09;4090679;28;20499;-72
2022/01/01 02:03:18;;;;;;;2.45;1.80;;;;;;;10.76;86.34;99237.22;4089264;28;20047;-72
2022/01/01 02:05:18;;;;;;;3.10;2.20;;;;;;;10.74;86.82;99244.25;4090453;28;20054;-72
2022/01/01 02:07:20;;;;;;;2.67;2.17;;;;;;;10.73;86.74;99242.66;4089875;28;20052;-72
2022/01/01 02:09:22;;;;;;;3.20;2.03;;;;;;;10.77;86.62;99257.38;4091526;28;20086;-72
2022/01/01 02:11:23;;;;;;;2.38;2.00;;;;;;;10.80;86.06;99253.88;4089765;28;20267;-72
2022/01/01 02:13:33;;;;;;;4.73;2.00;;;;;;;10.76;86.58;99261.28;4094973;28;20572;-72
2022/01/01 02:15:45;;;;;;;2.40;1.95;;;;;;;10.72;86.46;99261.22;4089976;28;20051;-72
2022/01/01 02:17:45;;;;;;;2.72;1.90;;;;;;;10.71;86.91;99269.88;4091396;28;20066;-72
2022/01/01 02:20:00;;;;;;;2.50;2.00;;;;;;;10.65;87.35;99270.16;4090307;28;20415;-72
2022/01/01 02:22:04;;;;;;;2.45;1.90;;;;;;;10.58;87.79;99274.72;4092551;28;20614;-72
2022/01/01 02:24:05;;;;;;;2.88;2.17;;;;;;;10.60;87.69;99261.34;4092017;28;20059;-72
2022/01/01 02:26:09;;;;;;;2.90;2.13;;;;;;;10.58;87.19;99275.50;4091808;28;20046;-72
2022/01/01 02:28:11;;;;;;;2.65;2.08;;;;;;;10.56;87.92;99275.06;4088810;28;20733;-72
2022/01/01 02:30:13;;;;;;;2.55;2.00;;;;;;;10.53;88.03;99283.31;4091903;28;20288;-72
2022/01/01 02:32:16;;;;;;;;;;;;;;;10.54;88.03;99282.94;4096313;28;20043;-72
2022/01/01 02:34:18;;;;;;;3.42;2.20;;;;;;;10.57;87.81;99284.97;4089292;28;19918;-72
2022/01/01 02:36:37;;;;;;;3.28;2.40;;;;;;;10.57;87.94;99281.41;4090602;28;20490;-72
2022/01/01 02:38:38;;;;;;;3.50;2.20;;;;;;;10.55;88.19;99278.22;4091251;28;20039;-72
2022/01/01 02:40:38;;;;;;;3.65;2.28;;;;;;;10.48;88.70;99272.50;4090549;28;20119;-72
2022/01/01 02:42:42;;;;;;;3.83;2.30;;;;;;;10.49;88.88;99283.19;4092687;28;20098;-72
2022/01/01 02:44:43;;;;;;;2.92;2.17;;;;;;;10.45;89.38;99278.75;4089994;28;20047;-72
2022/01/01 02:46:43;;;;;;;3.95;2.15;;;;;;;10.45;89.09;99276.78;4088347;28;20063;-72
2022/01/01 02:48:45;;;;;;;2.78;2.22;;;;;;;10.49;88.89;99276.88;4090406;28;20380;-72
2022/01/01 02:50:46;;;;;;;3.67;2.22;;;;;;;10.48;89.02;99281.59;4100507;28;20101;-72
2022/01/01 02:52:47;;;;;;;2.90;2.20;;;;;;;10.47;88.96;99280.00;4092901;28;20471;-72
2022/01/01 02:54:48;;;;;;;2.90;2.03;;;;;;;10.47;89.26;99284.72;4088397;28;20112;-72
2022/01/01 02:56:48;;;;;;;4.30;2.28;;;;;;;10.47;89.23;99284.72;4089417;28;20043;-72
2022/01/01 02:58:49;;;;;;;3.38;2.10;;;;;;;10.48;89.25;99287.13;4089250;28;20039;-72
2022/01/01 03:00:49;;;;;;;2.97;2.38;;;;;;;10.50;89.09;99293.09;4089593;28;20040;-72
2022/01/01 03:02:50;;;;;;;3.28;2.40;;;;;;;10.49;89.11;99288.72;4090249;28;20050;-72
2022/01/01 03:04:50;;;;;;;3.00;2.20;;;;;;;10.46;89.98;99289.47;4088856;28;20316;-72
2022/01/01 03:06:55;;;;;;;3.88;2.55;;;;;;;10.39;90.44;99286.50;4088939;28;20035;-72
2022/01/01 03:08:56;;;;;;;3.25;2.40;;;;;;;10.44;90.23;99288.22;4094123;28;20523;-72
2022/01/01 03:10:57;;;;;;;5.93;2.90;;;;;;;10.41;90.05;99289.72;4090772;28;20081;-72
2022/01/01 03:12:57;;;;;;;4.38;2.58;;;;;;;10.34;90.12;99279.31;4088754;28;20529;-72
2022/01/01 03:14:57;;;;;;;3.25;2.30;;;;;;;10.35;90.75;99291.16;4092911;28;20049;-72
2022/01/01 03:16:58;;;;;;;3.90;2.45;;;;;;;10.38;90.54;99295.97;4089786;28;20035;-72
2022/01/01 03:18:58;;;;;;;3.83;2.75;;;;;;;10.34;90.30;99293.13;4088712;28;20043;-72
2022/01/01 03:20:59;;;;;;;3.47;2.70;;;;;;;10.31;90.51;99298.56;4089330;28;20108;-72
2022/01/01 03:22:59;;;;;;;4.15;3.00;;;;;;;10.32;90.90;99297.41;4095644;28;20065;-72
2022/01/01 03:24:59;;;;;;;4.03;2.50;;;;;;;10.31;90.93;99293.81;4089202;28;20144;-72
2022/01/01 03:27:01;;;;;;;3.50;2.50;;;;;;;10.29;90.99;99289.81;4088796;28;20266;-72
2022/01/01 03:29:02;;;;;;;6.83;2.80;;;;;;;10.32;90.47;99298.19;4090031;28;20380;-72
2022/01/01 03:31:03;;;;;;;3.40;2.88;;;;;;;10.25;90.83;99288.91;4094503;28;20849;-72
2022/01/01 03:33:03;;;;;;;4.95;2.67;;;;;;;10.27;90.84;99283.84;4089066;28;20089;-72
2022/01/01 03:35:04;;;;;;;4.07;2.40;;;;;;;10.27;90.27;99283.84;4089487;28;20523;-72
2022/01/01 03:37:04;;;;;;;3.63;2.13;;;;;;;10.25;90.71;99283.38;4088597;28;20573;-72
2022/01/01 03:39:06;;;;;;;4.30;2.72;;;;;;;10.20;90.56;99270.59;4092864;28;20057;-72
2022/01/01 03:41:06;;;;;;;3.72;2.80;;;;;;;10.19;90.79;99273.72;4088646;28;20058;-72
2022/01/01 03:43:06;;;;;;;8.45;2.70;;;;;;;10.14;90.84;99260.97;4089706;28;20398;-72
2022/01/01 03:45:08;;;;;;;3.72;2.50;;;;;;;10.13;90.81;99265.69;4087709;28;20051;-72
2022/01/01 03:47:09;;;;;;;5.03;2.92;;;;;;;10.18;91.04;99264.63;4092236;28;20047;-72
2022/01/01 03:49:10;;;;;;;4.68;2.58;;;;;;;10.17;91.13;99270.50;4089281;28;20482;-72
2022/01/01 03:51:10;;;;;;;3.88;2.67;;;;;;;10.14;91.49;99275.59;4091642;28;20453;-72
2022/01/01 03:53:11;;;;;;;6.72;3.03;;;;;;;10.16;91.30;99261.41;4087568;28;20129;-72
2022/01/01 03:55:13;;;;;;;3.55;3.03;;;;;;;10.20;90.58;99272.56;4089239;28;20055;-72
2022/01/01 03:57:13;;;;;;;4.82;2.90;;;;;;;10.23;90.44;99274.66;4087680;28;20047;-72
2022/01/01 03:59:14;;;;;;;3.50;2.60;;;;;;;10.19;90.60;99280.06;4088753;28;20495;-71
2022/01/01 04:01:14;;;;;;;4.07;3.28;;;;;;;10.19;90.39;99282.84;4088890;28;20575;-72
2022/01/01 04:03:18;;;;;;;4.40;3.10;;;;;;;10.16;91.04;99283.53;4088742;28;20054;-71
2022/01/01 04:05:18;;;;;;;4.38;3.15;;;;;;;10.13;91.18;99287.81;4088285;28;20054;-72
2022/01/01 04:07:19;;;;;;;4.93;3.33;;;;;;;10.06;91.09;99287.63;4088895;28;20398;-72
2022/01/01 04:09:19;;;;;;;4.82;3.22;;;;;;;10.04;92.10;99289.13;4089390;28;20105;-72
2022/01/01 04:11:21;;;;;;;4.65;3.35;;;;;;;10.01;91.76;99307.25;4088040;28;20050;-72
2022/01/01 04:13:22;;;;;;;5.55;3.50;;;;;;;9.98;92.41;99307.13;4089197;28;20055;-72
2022/01/01 04:15:22;;;;;;;5.03;3.20;;;;;;;10.03;91.82;99307.69;4088640;28;20058;-72
2022/01/01 04:17:22;;;;;;;5.63;3.55;;;;;;;9.96;91.89;99304.72;4087590;28;20051;-72
2022/01/01 04:19:30;;;;;;;4.15;2.80;;;;;;;10.00;91.58;99304.81;4088712;28;20487;-72
2022/01/01 04:21:31;;;;;;;3.95;2.63;;;;;;;9.96;92.20;99303.94;4094381;28;20134;-72
2022/01/01 04:23:31;;;;;;;3.75;2.70;;;;;;;9.92;92.46;99317.63;4089773;28;20085;-72
2022/01/01 04:25:31;;;;;;;5.80;3.72;;;;;;;9.90;92.54;99313.63;4087741;28;20047;-72
2022/01/01 04:27:32;;;;;;;4.40;2.80;;;;;;;9.85;93.64;99312.75;4087322;28;20047;-72
2022/01/01 04:29:33;;;;;;;6.20;3.15;;;;;;;9.81;93.44;99317.34;4089117;28;20368;-72
2022/01/01 04:31:33;;;;;;;4.00;2.85;;;;;;;9.80;93.51;99312.19;4088394;28;20043;-72
2022/01/01 04:33:34;;;;;;;4.00;2.95;;;;;;;9.79;93.44;99327.97;4087733;28;20049;-72
2022/01/01 04:35:34;;;;;;;3.80;2.75;;;;;;;9.79;92.99;99318.88;4087096;28;20074;-72
2022/01/01 04:37:35;;;;;;;5.00;3.53;;;;;;;9.80;92.93;99323.25;4088571;28;20061;-72
2022/01/01 04:39:36;;;;;;;7.30;3.40;;;;;;;9.80;92.51;99320.47;4087301;28;20346;-72
2022/01/01 04:41:36;;;;;;;4.47;3.00;;;;;;;9.84;92.10;99327.69;4089057;28;20055;-72
2022/01/01 04:43:37;;;;;;;4.07;3.00;;;;;;;9.85;91.59;99315.50;4088664;28;20418;-72
2022/01/01 04:45:37;;;;;;;4.10;2.60;;;;;;;9.87;91.11;99317.91;4171470;28;20107;-72
2022/01/01 04:47:37;;;;;;;4.45;2.60;;;;;;;9.90;90.14;99310.88;4087226;28;20051;-72
2022/01/01 04:49:38;;;;;;;2.95;2.58;;;;;;;9.92;89.60;99319.59;4091735;28;20130;-72
2022/01/01 04:51:38;;;;;;;3.58;2.50;;;;;;;9.87;89.67;99317.91;4089022;28;20103;-72
2022/01/01 04:53:40;;;;;;;3.50;2.65;;;;;;;9.91;89.79;99315.22;4086792;28;20066;-72
2022/01/01 04:55:40;;;;;;;4.83;2.93;;;;;;;9.92;89.17;99322.38;4088668;28;20387;-72
2022/01/01 04:57:41;;;;;;;5.00;2.67;;;;;;;9.96;87.70;99324.09;4087555;28;20047;-72
2022/01/01 04:59:41;;;;;;;5.57;3.20;;;;;;;9.96;88.60;99329.63;4090038;28;20071;-72
2022/01/01 05:01:43;;;;;;;4.07;2.72;;;;;;;9.98;88.19;99332.81;4088748;28;20062;-72
2022/01/01 05:03:43;;;;;;;5.10;2.80;;;;;;;9.98;88.18;99329.25;4088063;28;20050;-72
2022/01/01 05:05:43;;;;;;;5.68;3.20;;;;;;;9.98;87.80;99332.81;4087736;28;20138;-72
2022/01/01 05:07:44;;;;;;;5.50;2.75;;;;;;;9.92;87.84;99323.16;4087050;28;20043;-72
2022/01/01 05:09:45;;;;;;;4.00;2.78;;;;;;;9.94;87.53;99333.91;4092730;28;20195;-72
2022/01/01 05:11:49;;;;;;;6.18;3.35;;;;;;;9.93;88.49;99326.72;4089743;28;20517;-72
2022/01/01 05:13:50;;;;;;;4.72;3.22;;;;;;;9.92;87.97;99337.00;4090907;28;20113;-72
2022/01/01 05:15:51;;;;;;;6.20;3.10;;;;;;;9.88;88.49;99329.78;4087839;28;20039;-72
2022/01/01 05:17:52;;;;;;;3.22;2.88;;;;;;;9.94;88.31;99339.44;4089179;28;20048;-72
2022/01/01 05:19:52;;;;;;;6.10;2.85;;;;;;;9.91;88.67;99334.59;4088206;28;20043;-72
2022/01/01 05:21:55;;;;;;;4.55;2.88;;;;;;;9.89;89.01;99343.22;4088673;28;20161;-72
2022/01/01 05:23:55;;;;;;;4.55;2.65;;;;;;;9.88;89.32;99340.81;4090194;28;20744;-72
2022/01/01 05:25:56;;;;;;;5.60;2.50;;;;;;;9.90;89.31;99344.03;4087284;28;20055;-72
2022/01/01 05:27:56;;;;;;;5.05;2.80;;;;;;;9.87;89.38;99328.97;4087016;28;20051;-72
2022/01/01 05:29:56;;;;;;;6.60;2.72;;;;;;;9.92;88.93;99336.19;4088291;28;20130;-72
2022/01/01 05:31:57;;;;;;;4.72;2.97;;;;;;;9.99;88.91;99339.16;4087035;28;20493;-71
2022/01/01 05:33:57;;;;;;;4.43;2.90;;;;;;;9.99;88.87;99339.16;4087780;28;20465;-72
2022/01/01 05:35:57;;;;;;;5.10;2.97;;;;;;;10.01;88.89;99339.59;4087915;28;20518;-72
2022/01/01 05:37:58;;;;;;;5.63;2.80;;;;;;;10.02;88.20;99336.50;4093282;28;20541;-72
2022/01/01 05:39:58;;;;;;;6.60;3.40;;;;;;;10.02;89.01;99342.03;4090606;28;20051;-72
2022/01/01 05:41:58;;;;;;;3.65;2.80;;;;;;;10.00;89.21;99346.28;4141828;28;20053;-72
2022/01/01 05:43:59;;;;;;;4.03;2.72;;;;;;;10.02;88.98;99352.28;4088215;28;20047;-72
2022/01/01 05:46:00;;;;;;;8.35;3.15;;;;;;;10.01;89.18;99351.47;4089364;28;20544;-72
2022/01/01 05:48:00;;;;;;;4.53;3.05;;;;;;;10.01;89.19;99347.88;4086385;28;20765;-72
2022/01/01 05:50:01;;;;;;;5.20;3.17;;;;;;;10.02;88.62;99352.28;4087201;28;20044;-72
2022/01/01 05:52:01;;;;;;;7.13;3.47;;;;;;;10.04;88.67;99359.06;4091211;28;20437;-72
2022/01/01 05:54:02;;;;;;;5.90;3.33;;;;;;;10.05;88.74;99360.66;4089431;28;20141;-72
2022/01/01 05:56:02;;;;;;;5.68;3.55;;;;;;;10.04;88.73;99361.81;4090062;28;20392;-71
2022/01/01 05:58:05;;;;;;;6.50;3.70;;;;;;;10.07;89.40;99363.88;4087661;28;20043;-72
2022/01/01 06:00:07;;;;;;;7.68;3.95;;;;;;;10.10;88.61;99373.44;4087519;28;20067;-72
2022/01/01 06:02:08;;;;;;;5.65;3.47;;;;;;;10.06;89.14;99369.75;4089748;28;20043;-72
2022/01/01 06:04:09;;;;;;;5.63;3.35;;;;;;;10.07;89.17;99365.84;4089771;28;20113;-71
2022/01/01 06:06:09;;;;;;;10.07;4.05;;;;;;;10.05;89.07;99374.50;4091063;28;20371;-72
2022/01/01 06:08:10;;;;;;;7.18;3.83;;;;;;;10.05;89.13;99368.97;4091650;28;20785;-72
2022/01/01 06:10:10;;;;;;;5.18;3.28;;;;;;;10.02;89.44;99366.13;4096960;28;20100;-72
2022/01/01 06:12:10;;;;;;;5.60;3.42;;;;;;;9.99;89.84;99369.56;4094254;28;20439;-72
2022/01/01 06:14:11;;;;;;;6.78;3.70;;;;;;;9.92;90.03;99358.31;4092322;28;20482;-72
2022/01/01 06:16:11;;;;;;;6.03;4.07;;;;;;;9.88;90.42;99360.19;4091638;28;20364;-72
2022/01/01 06:18:12;;;;;;;4.30;3.35;;;;;;;9.89;90.50;99379.16;4090423;28;20501;-72
2022/01/01 06:20:13;;;;;;;7.32;3.83;;;;;;;9.87;90.60;99367.66;4090641;28;20425;-72
2022/01/01 06:22:13;;;;;;;5.22;4.15;;;;;;;9.91;90.35;99379.63;4097428;28;20033;-72
2022/01/01 06:24:14;;;;;;;8.85;4.30;;;;;;;9.91;89.95;99382.38;4091444;28;20092;-72
2022/01/01 06:26:15;;;;;;;7.97;4.93;;;;;;;9.95;89.75;99377.78;4091866;28;20200;-72
2022/01/01 06:28:15;;;;;;;6.88;4.25;;;;;;;9.94;89.67;99364.31;4091463;28;20043;-72
2022/01/01 06:30:16;;;;;;;5.50;3.88;;;;;;;9.87;90.40;99369.63;4095717;28;20046;-72
2022/01/01 06:32:16;;;;;;;6.20;3.78;;;;;;;9.85;91.16;99368.03;4091723;28;20046;-72
2022/01/01 06:34:17;;;;;;;8.30;4.45;;;;;;;9.81;91.23;99367.09;4091000;28;20038;-72
2022/01/01 06:36:17;;;;;;;7.05;3.97;;;;;;;9.83;90.61;99370.31;4092064;28;20034;-72
2022/01/01 06:38:17;;;;;;;5.78;3.78;;;;;;;9.81;90.17;99358.00;4090040;28;20541;-72
2022/01/01 06:40:18;;;;;;;11.15;4.47;;;;;;;9.82;90.07;99367.91;4090077;28;20035;-72
2022/01/01 06:42:18;;;;;;;6.20;4.35;;;;;;;9.84;89.85;99377.44;4093184;28;20043;-71
2022/01/01 06:44:19;;;;;;;7.65;4.85;;;;;;;9.87;88.58;99375.97;4090048;28;20059;-71
2022/01/01 06:46:19;;;;;;;8.18;4.25;;;;;;;9.89;89.26;99383.91;4092084;28;20026;-72
2022/01/01 06:48:20;;;;;;;7.20;4.55;;;;;;;9.82;89.65;99388.06;4091080;28;20038;-71
2022/01/01 06:50:20;;;;;;;11.13;5.18;;;;;;;9.80;90.07;99390.38;4090525;28;20558;-72
2022/01/01 06:52:20;;;;;;;7.32;4.53;;;;;;;9.79;89.34;99386.00;4091726;28;20062;-71
2022/01/01 06:54:21;;;;;;;9.10;4.60;;;;;;;9.73;89.63;99384.63;4094655;28;20061;-72
2022/01/01 06:56:21;;;;;;;8.65;4.45;;;;;;;9.65;89.81;99382.00;4092264;28;20062;-72
2022/01/01 06:58:21;;;;;;;10.73;4.97;;;;;;;9.60;90.60;99382.25;4091322;28;20446;-72
2022/01/01 07:00:22;;;;;;;10.65;5.18;;;;;;;9.51;91.03;99385.94;4091350;28;20105;-72
2022/01/01 07:02:22;;;;;;;7.00;4.55;;;;;;;9.47;92.13;99382.28;4090195;28;20047;-72
2022/01/01 07:04:23;;;;;;;11.48;4.90;;;;;;;9.40;92.91;99389.56;4093225;28;20484;-71
2022/01/01 07:06:23;;;;;;;10.73;5.35;;;;;;;9.33;92.26;99381.03;4089372;28;20525;-72
2022/01/01 07:08:23;;;;;;;7.57;4.80;;;;;;;9.25;92.56;99378.06;4089945;28;20202;-72
2022/01/01 07:10:24;;;;;;;10.73;5.07;;;;;;;9.19;93.41;99386.94;4092837;28;20145;-72
2022/01/01 07:12:24;;;;;;;7.22;4.80;;;;;;;9.12;93.24;99378.44;4090783;28;20511;-72
2022/01/01 07:14:25;;;;;;;7.03;5.03;;;;;;;9.07;93.68;99384.19;4090389;28;20055;-72
2022/01/01 07:16:26;;;;;;;15.43;6.82;;;;;;;9.12;93.13;99376.47;4091947;28;20291;-71
2022/01/01 07:18:27;;;;;;;9.82;5.88;;;;;;;9.11;93.09;99369.34;4088850;28;20043;-72
2022/01/01 07:20:27;;;;;;;11.65;6.63;;;;;;;9.14;93.02;99382.44;4090924;28;20491;-72
2022/01/01 07:22:27;;;;;;;10.60;5.70;;;;;;;9.11;93.53;99393.41;4093133;28;20588;-72
2022/01/01 07:24:28;;;;;;;8.18;5.28;;;;;;;9.13;93.22;99394.66;4092230;28;20047;-72
2022/01/01 07:26:28;;;;;;;8.57;5.57;;;;;;;9.16;92.38;99402.22;4091270;28;20051;-72
2022/01/01 07:28:28;;;;;;;15.48;6.10;;;;;;;9.20;92.44;99414.22;4091045;28;20039;-71
2022/01/01 07:30:29;;;;;;;16.08;8.60;;;;;;;9.19;92.30;99417.31;4091616;28;20097;-72
2022/01/01 07:32:29;;;;;;;11.55;8.13;;;;;;;9.20;91.79;99424.44;4093299;28;20055;-71
2022/01/01 07:34:30;;;;;;;23.17;14.30;;;;;;;9.15;93.02;99435.72;4090667;28;20046;-72
2022/01/01 07:36:30;;;;;;;21.17;11.85;;;;;;;9.14;92.26;99421.09;4089939;28;20507;-72
2022/01/01 07:38:30;;;;;;;63.38;29.50;;;;;;;9.19;92.52;99433.88;4091192;28;20238;-72
2022/01/01 07:40:34;;;;;;;71.47;32.08;;;;;;;9.20;93.06;99436.28;4089589;28;20043;-71
2022/01/01 07:42:35;;;;;;;42.38;18.90;;;;;;;9.15;93.22;99431.00;4089371;28;20181;-72
2022/01/01 07:44:35;;;;;;;20.60;10.70;;;;;;;9.15;93.28;99438.47;4093176;28;20158;-72
2022/01/01 07:46:35;;;;;;;16.67;9.27;;;;;;;9.13;93.34;99447.09;4095926;28;20047;-72
2022/01/01 07:48:36;;;;;;;7.97;5.78;;;;;;;9.12;93.33;99442.75;4089455;28;20134;-72
2022/01/01 07:50:37;;;;;;;14.40;5.97;;;;;;;9.11;93.94;99446.66;4091287;28;20494;-72
2022/01/01 07:52:39;;;;;;;17.13;9.18;;;;;;;9.12;94.39;99448.25;4089169;28;20074;-71
2022/01/01 07:54:39;;;;;;;8.63;6.38;;;;;;;9.07;94.81;99451.25;4092291;28;20055;-72
2022/01/01 07:56:39;;;;;;;14.68;7.75;;;;;;;9.11;95.03;99452.19;4088522;28;20188;-72
2022/01/01 07:58:40;;;;;;;14.80;8.75;;;;;;;9.06;95.11;99454.34;4087672;28;20043;-72
2022/01/01 08:00:40;;;;;;;16.73;9.60;;;;;;;9.09;95.77;99456.41;4087479;28;20528;-72
2022/01/01 08:02:42;;;;;;;19.40;8.68;;;;;;;9.09;95.83;99456.41;4089429;28;20104;-72
2022/01/01 08:04:42;;;;;;;17.87;9.33;;;;;;;9.07;96.30;99467.81;4087879;28;20387;-72
2022/01/01 08:06:43;;;;;;;20.08;10.07;;;;;;;9.09;95.74;99467.44;4087673;28;20036;-72
2022/01/01 08:08:43;;;;;;;15.73;8.82;;;;;;;9.13;96.46;99471.97;4088890;28;20047;-72
2022/01/01 08:10:43;;;;;;;13.18;7.70;;;;;;;9.13;95.58;99469.19;4092462;28;20100;-72
2022/01/01 08:12:44;;;;;;;12.15;6.93;;;;;;;9.12;95.62;99472.31;4087289;28;20135;-72
2022/01/01 08:14:44;;;;;;;8.43;5.72;;;;;;;9.15;95.05;99483.47;4087400;28;20043;-72
2022/01/01 08:17:03;;;;;;;9.63;5.32;;;;;;;9.12;94.85;99481.38;4088102;28;20038;-72
2022/01/01 08:19:03;;;;;;;11.93;5.95;;;;;;;9.15;94.96;99474.38;4106655;28;20139;-72
2022/01/01 08:21:03;;;;;;;9.85;5.88;;;;;;;9.20;95.30;99479.69;4094503;28;20075;-72
2022/01/01 08:23:04;;;;;;;11.45;5.65;;;;;;;9.20;95.17;99474.97;4091608;28;20051;-72
2022/01/01 08:25:05;;;;;;;12.05;6.15;;;;;;;9.22;95.60;99475.41;4092278;28;20051;-72
2022/01/01 08:27:05;;;;;;;9.20;5.30;;;;;;;9.26;95.89;99470.78;4096896;28;20073;-72
2022/01/01 08:29:06;;;;;;;11.50;6.35;;;;;;;9.34;95.54;99477.34;4098224;28;20055;-72
2022/01/01 08:31:07;;;;;;;10.00;5.90;;;;;;;9.41;94.93;99480.34;4092604;28;20075;-72
2022/01/01 08:33:07;;;;;;;15.32;8.65;;;;;;;9.45;94.84;99478.53;4095390;28;20146;-72
2022/01/01 08:35:08;;;;;;;15.93;8.43;;;;;;;9.48;95.13;99483.34;4092946;28;20092;-71
2022/01/01 08:37:08;;;;;;;20.77;12.55;;;;;;;9.55;94.27;99486.34;4092923;28;20394;-72
2022/01/01 08:39:09;;;;;;;24.67;12.25;;;;;;;9.67;94.03;99498.50;4088292;28;20333;-72
2022/01/01 08:41:09;;;;;;;17.52;10.32;;;;;;;9.72;93.78;99495.53;4087688;28;20043;-72
2022/01/01 08:43:10;;;;;;;15.57;10.13;;;;;;;9.73;93.56;99486.88;4087705;28;20210;-72
2022/01/01 08:45:10;;;;;;;18.40;14.00;;;;;;;9.72;93.37;99485.28;4087872;28;20083;-72
2022/01/01 08:47:11;;;;;;;15.85;9.98;;;;;;;9.75;93.43;99481.00;4087034;28;20043;-72
2022/01/01 08:49:12;;;;;;;16.05;9.07;;;;;;;9.78;93.03;99478.38;4087849;28;20039;-72
2022/01/01 08:51:17;;;;;;;13.65;8.27;;;;;;;9.79;92.48;99468.13;4088009;28;20055;-72
2022/01/01 08:53:17;;;;;;;10.13;6.13;;;;;;;9.83;92.41;99469.00;4088338;28;20047;-72
2022/01/01 08:55:18;;;;;;;9.77;5.85;;;;;;;9.81;92.55;99469.38;4087299;28;20346;-72
2022/01/01 08:57:19;;;;;;;15.25;5.70;;;;;;;9.83;92.32;99472.56;4087529;28;20043;-72
2022/01/01 08:59:19;;;;;;;9.10;5.88;;;;;;;9.83;92.37;99469.00;4087385;28;20497;-72
2022/01/01 09:01:20;;;;;;;10.00;5.63;;;;;;;9.86;92.39;99473.84;4087516;28;20051;-72
2022/01/01 09:03:21;;;;;;;7.75;4.60;;;;;;;9.90;91.56;99473.94;4092626;28;20104;-72
2022/01/01 09:05:22;;;;;;;7.45;4.55;;;;;;;9.89;91.20;99475.91;4093879;28;20054;-72
2022/01/01 09:07:28;;;;;;;8.23;5.03;;;;;;;9.94;91.15;99486.75;4090625;28;20043;-72
2022/01/01 09:09:28;;;;;;;9.55;5.70;;;;;;;9.96;91.33;99476.13;4097012;28;20134;-72
2022/01/01 09:11:28;;;;;;;7.32;4.75;;;;;;;10.04;90.72;99482.69;4090095;28;20441;-72
2022/01/01 09:13:29;;;;;;;11.43;6.32;;;;;;;10.10;89.88;99486.81;4087630;28;20751;-72
2022/01/01 09:15:30;;;;;;;14.05;6.18;;;;;;;10.16;89.73;99484.59;4087809;28;20075;-72
2022/01/01 09:17:30;;;;;;;9.25;6.38;;;;;;;10.20;89.45;99491.03;4087356;28;20487;-72
2022/01/01 09:19:30;;;;;;;10.35;6.20;;;;;;;10.22;89.48;99491.50;4086491;28;20403;-72
2022/01/01 09:21:32;;;;;;;14.98;7.05;;;;;;;10.29;88.48;99491.72;4095432;28;20051;-72
2022/01/01 09:23:32;;;;;;;12.40;6.53;;;;;;;10.35;87.98;99493.91;4087677;28;20447;-72
2022/01/01 09:25:33;;;;;;;10.88;6.68;;;;;;;10.49;87.38;99492.69;4087537;28;20181;-72
2022/01/01 09:27:33;;;;;;;11.65;6.72;;;;;;;10.52;87.30;99495.56;4085318;28;20325;-72
2022/01/01 09:29:34;;;;;;;10.60;5.75;;;;;;;10.59;86.73;99506.00;4088099;28;20048;-72
2022/01/01 09:31:34;;;;;;;8.80;6.07;;;;;;;10.63;86.32;99504.16;4131287;28;20053;-72